createdAt,value
2019-02-23T08:37:51.028Z,24.77
2019-02-23T08:40:19.817Z,20.97
2019-02-23T08:42:48.500Z,22.23
2019-02-23T08:45:17.194Z,27.17
2019-02-23T08:47:45.972Z,34.37
2019-02-23T08:50:15.688Z,29.33
2019-02-23T08:52:49.304Z,24.30
2019-02-23T08:55:14.899Z,22.43
2019-02-23T08:57:45.537Z,25.43
2019-02-23T09:00:16.308Z,36.00
2019-02-23T09:02:45.372Z,21.57
2019-02-23T09:05:14.559Z,24.73
2019-02-23T09:07:43.447Z,24.40
2019-02-23T09:10:13.974Z,20.50
2019-02-23T09:12:42.749Z,26.00
2019-02-23T09:15:11.866Z,26.53
2019-02-23T09:17:40.631Z,27.57
2019-02-23T09:20:12.801Z,22.97
2019-02-23T09:22:41.583Z,22.97
2019-02-23T09:25:11.006Z,28.07
2019-02-23T09:27:39.667Z,23.70
2019-02-23T09:30:15.815Z,24.70
2019-02-23T09:32:44.511Z,24.27
2019-02-23T09:35:13.201Z,20.63
2019-02-23T09:37:41.913Z,25.57
2019-02-23T09:40:12.960Z,24.37
2019-02-23T09:42:41.681Z,23.17
2019-02-23T09:45:11.999Z,24.77
2019-02-23T09:47:40.512Z,22.03
2019-02-23T09:50:09.093Z,24.70
2019-02-23T09:52:37.782Z,28.83
2019-02-23T09:55:07.128Z,21.40
2019-02-23T09:57:38.634Z,36.93
2019-02-23T10:00:10.353Z,25.70
2019-02-23T10:02:38.976Z,24.63
2019-02-23T10:05:08.061Z,34.83
2019-02-23T10:07:36.633Z,27.97
2019-02-23T10:10:07.746Z,20.87
2019-02-23T10:12:36.573Z,22.90
2019-02-23T10:15:10.378Z,23.83
2019-02-23T10:17:38.962Z,23.13
2019-02-23T10:20:11.854Z,21.70
2019-02-23T10:22:40.534Z,22.30
2019-02-23T10:25:09.215Z,20.23
2019-02-23T10:27:37.716Z,26.63
2019-02-23T10:30:14.568Z,26.47
2019-02-23T10:32:43.252Z,23.03
2019-02-23T10:35:14.908Z,22.07
2019-02-23T10:37:43.584Z,22.10
2019-02-23T10:40:13.096Z,22.20
2019-02-23T10:42:41.780Z,26.23
2019-02-23T10:45:12.759Z,23.97
2019-02-23T10:47:41.407Z,20.93
2019-02-23T10:50:11.629Z,22.93
2019-02-23T10:52:40.413Z,22.20
2019-02-23T10:55:11.348Z,24.90
2019-02-23T10:57:39.933Z,25.10
2019-02-23T11:00:15.877Z,23.83
2019-02-23T11:02:44.685Z,24.97
2019-02-23T11:05:14.278Z,28.77
2019-02-23T11:07:43.076Z,25.03
2019-02-23T11:10:11.866Z,25.40
2019-02-23T11:12:40.649Z,31.43
2019-02-23T11:15:15.249Z,22.73
2019-02-23T11:17:43.959Z,25.27
2019-02-23T11:20:12.734Z,27.60
2019-02-23T11:22:41.528Z,25.77
2019-02-23T11:25:11.583Z,33.23
2019-02-23T11:27:40.358Z,31.30
2019-02-23T11:30:11.556Z,26.60
2019-02-23T11:32:40.155Z,27.07
2019-02-23T11:35:11.091Z,24.27
2019-02-23T11:37:39.883Z,23.47
2019-02-23T11:40:10.887Z,27.13
2019-02-23T11:42:39.608Z,26.83
2019-02-23T11:45:09.681Z,28.67
2019-02-23T11:47:38.413Z,27.37
2019-02-23T11:50:09.649Z,27.97
2019-02-23T11:52:39.515Z,23.33
2019-02-23T11:55:08.387Z,30.07
2019-02-23T11:57:37.144Z,22.93
2019-02-23T12:00:08.395Z,21.33
2019-02-23T12:02:37.056Z,25.33
2019-02-23T12:05:05.775Z,21.43
2019-02-23T12:07:34.539Z,24.53
2019-02-23T12:10:03.347Z,24.87
2019-02-23T12:12:32.219Z,23.57
2019-02-23T12:15:04.247Z,20.57
2019-02-23T12:17:32.963Z,23.27
2019-02-23T12:20:01.547Z,25.53
2019-02-23T12:22:30.237Z,21.03
2019-02-23T12:24:59.014Z,18.73
2019-02-23T12:27:27.914Z,22.77
2019-02-23T12:29:56.682Z,20.77
2019-02-23T12:32:25.383Z,27.43
2019-02-23T12:34:54.061Z,19.13
2019-02-23T12:37:22.847Z,21.03
2019-02-23T12:39:51.431Z,26.87
2019-02-23T12:42:20.116Z,22.57
2019-02-23T12:44:48.799Z,24.57
2019-02-23T12:47:17.382Z,25.27
2019-02-23T12:49:46.065Z,22.17
2019-02-23T12:52:14.648Z,21.43
2019-02-23T12:54:43.439Z,22.67
2019-02-23T12:57:12.123Z,26.57
2019-02-23T12:59:40.814Z,20.47
2019-02-23T13:02:09.489Z,20.43
2019-02-23T13:04:38.178Z,23.80
2019-02-23T13:07:06.869Z,27.87
2019-02-23T13:09:35.561Z,21.60
2019-02-23T13:12:16.522Z,20.80
2019-02-23T13:14:54.524Z,25.07
2019-02-23T13:17:43.172Z,23.20
2019-02-23T13:20:20.868Z,21.13
2019-02-23T13:23:04.686Z,26.43
2019-02-23T13:25:44.844Z,20.63
2019-02-23T13:28:42.563Z,20.37
2019-02-23T13:31:30.971Z,20.07
2019-02-23T13:34:14.606Z,20.70
2019-02-23T13:37:01.886Z,32.27
2019-02-23T13:39:45.459Z,24.63
2019-02-23T13:42:41.781Z,29.77
2019-02-23T13:45:40.686Z,20.27
2019-02-23T13:48:29.135Z,24.53
2019-02-23T13:51:15.950Z,22.47
2019-02-23T13:54:09.116Z,22.37
2019-02-23T13:56:52.737Z,22.63
2019-02-23T13:59:45.689Z,23.97
2019-02-23T14:02:39.462Z,24.77
2019-02-23T14:05:30.366Z,25.03
2019-02-23T14:08:10.624Z,28.80
2019-02-23T14:10:45.441Z,27.33
2019-02-23T14:13:20.180Z,25.30
2019-02-23T14:16:04.324Z,21.90
2019-02-23T14:18:38.959Z,27.93
2019-02-23T14:21:32.107Z,28.73
2019-02-23T14:24:19.121Z,22.33
2019-02-23T14:27:07.568Z,22.70
2019-02-23T14:29:51.516Z,23.70
2019-02-23T14:32:25.726Z,22.40
2019-02-23T14:35:03.420Z,19.40
2019-02-23T14:38:02.117Z,22.13
2019-02-23T14:40:46.063Z,22.27
2019-02-23T14:43:18.018Z,22.23
2019-02-23T14:46:04.952Z,22.63
2019-02-23T14:49:04.012Z,22.63
2019-02-23T14:51:48.085Z,20.27
2019-02-23T14:54:25.864Z,21.43
2019-02-23T14:57:12.780Z,18.37
2019-02-23T14:59:56.718Z,22.50
2019-02-23T15:02:40.173Z,18.17
2019-02-23T15:05:20.921Z,20.23
2019-02-23T15:08:13.879Z,23.63
2019-02-23T15:11:08.063Z,26.50
2019-02-23T15:13:54.397Z,21.17
2019-02-23T15:16:44.759Z,22.73
2019-02-23T15:19:25.664Z,25.90
2019-02-23T15:22:13.690Z,20.40
2019-02-23T15:25:13.633Z,20.60
2019-02-23T15:27:57.234Z,18.63
2019-02-23T15:30:30.789Z,25.23
2019-02-23T15:33:08.496Z,23.23
2019-02-23T15:35:43.479Z,34.30
2019-02-23T15:38:27.417Z,17.67
2019-02-23T15:41:15.857Z,31.90
2019-02-23T15:44:16.595Z,19.03
2019-02-23T15:46:57.363Z,26.63
2019-02-23T15:49:27.962Z,20.03
2019-02-23T15:51:56.654Z,19.87
2019-02-23T15:54:25.411Z,20.40
2019-02-23T15:56:54.319Z,20.87
2019-02-23T15:59:23.007Z,22.47
2019-02-23T16:01:51.588Z,16.63
2019-02-23T16:04:20.177Z,17.70
2019-02-23T16:06:48.744Z,21.73
2019-02-23T16:09:17.444Z,20.57
2019-02-23T16:11:46.223Z,19.43
2019-02-23T16:14:14.902Z,22.90
2019-02-23T16:16:43.584Z,21.70
2019-02-23T16:19:12.474Z,19.03
2019-02-23T16:21:41.057Z,16.90
2019-02-23T16:24:09.843Z,18.33
2019-02-23T16:26:38.527Z,22.03
2019-02-23T16:29:07.211Z,20.00
2019-02-23T16:31:35.885Z,23.93
2019-02-23T16:34:07.170Z,25.27
2019-02-23T16:36:34.801Z,21.43
2019-02-23T16:39:05.126Z,24.50
2019-02-23T16:41:33.708Z,26.77
2019-02-23T16:44:02.394Z,27.33
2019-02-23T16:46:31.080Z,20.83
2019-02-23T16:48:59.768Z,24.50
2019-02-23T16:51:28.448Z,33.30
2019-02-23T16:53:57.027Z,42.20
2019-02-23T16:56:25.609Z,31.50
2019-02-23T16:58:54.194Z,26.37
2019-02-23T17:01:22.908Z,24.73
2019-02-23T17:03:51.568Z,25.00
2019-02-23T17:06:20.449Z,25.43
2019-02-23T17:08:49.135Z,25.73
2019-02-23T17:11:17.921Z,48.93
2019-02-23T17:13:46.506Z,26.40
2019-02-23T17:16:15.195Z,31.77
2019-02-23T17:18:43.846Z,28.50
2019-02-23T17:21:14.533Z,27.07
2019-02-23T17:23:43.293Z,27.47
2019-02-23T17:26:12.182Z,31.00
2019-02-23T17:28:40.865Z,29.77
2019-02-23T17:31:11.401Z,29.93
2019-02-23T17:33:40.068Z,27.80
2019-02-23T17:36:08.869Z,23.87
2019-02-23T17:38:37.546Z,27.37
2019-02-23T17:41:06.335Z,26.40
2019-02-23T17:43:35.231Z,37.60
2019-02-23T17:46:03.922Z,33.10
2019-02-23T17:51:00.960Z,46.87
2019-02-23T17:53:29.654Z,35.80
2019-02-23T17:55:58.234Z,28.70
2019-02-23T17:58:26.922Z,27.07
2019-02-23T18:00:57.757Z,33.57
2019-02-23T18:03:26.448Z,29.50
2019-02-23T18:05:55.374Z,26.40
2019-02-23T18:08:24.121Z,30.47
2019-02-23T18:10:52.827Z,35.83
2019-02-23T18:13:21.596Z,33.77
2019-02-23T18:15:50.286Z,26.23
2019-02-23T18:18:18.971Z,34.87
2019-02-23T18:20:48.341Z,26.17
2019-02-23T18:23:17.045Z,30.03
2019-02-23T18:25:45.815Z,29.30
2019-02-23T18:28:14.528Z,28.00
2019-02-23T18:30:43.445Z,30.20
2019-02-23T18:33:12.094Z,31.43
2019-02-23T18:35:40.775Z,32.60
2019-02-23T18:38:09.374Z,29.83
2019-02-23T18:40:38.031Z,32.27
2019-02-23T18:43:06.828Z,32.00
2019-02-23T18:45:35.718Z,34.00
2019-02-23T18:48:04.399Z,29.10
2019-02-23T18:50:32.882Z,32.50
2019-02-23T18:53:01.696Z,37.80
2019-02-23T18:55:30.562Z,31.90
2019-02-23T18:57:59.461Z,42.77
2019-02-23T19:00:28.028Z,41.47
2019-02-23T19:02:56.716Z,38.43
2019-02-23T19:05:25.501Z,35.57
2019-02-23T19:07:54.089Z,33.60
2019-02-23T19:10:22.772Z,35.90
2019-02-23T19:12:51.455Z,32.80
2019-02-23T19:15:20.144Z,37.87
2019-02-23T19:17:48.721Z,40.47
2019-02-23T19:20:17.439Z,66.33
2019-02-23T19:22:45.986Z,35.43
2019-02-23T19:25:14.568Z,38.23
2019-02-23T19:27:43.160Z,35.20
2019-02-23T19:30:13.595Z,35.30
2019-02-23T19:32:42.363Z,31.30
2019-02-23T19:35:11.048Z,39.83
2019-02-23T19:37:39.833Z,34.90
2019-02-23T19:40:09.648Z,33.87
2019-02-23T19:42:38.331Z,34.47
2019-02-23T19:45:11.332Z,34.17
2019-02-23T19:47:41.928Z,35.23
2019-02-23T19:50:14.219Z,33.53
2019-02-23T19:52:43.106Z,37.23
2019-02-23T19:55:14.822Z,32.43
2019-02-23T19:57:43.547Z,36.60
2019-02-23T20:00:12.555Z,37.60
2019-02-23T20:02:41.800Z,50.10
2019-02-23T20:05:14.616Z,43.03
2019-02-23T20:07:43.407Z,40.37
2019-02-23T20:10:12.087Z,36.33
2019-02-23T20:12:40.773Z,39.03
2019-02-23T20:15:10.790Z,33.57
2019-02-23T20:17:39.371Z,43.30
2019-02-23T20:20:08.875Z,50.40
2019-02-23T20:22:37.665Z,49.20
2019-02-23T20:25:08.499Z,51.90
2019-02-23T20:27:37.189Z,52.33
2019-02-23T20:30:09.254Z,46.93
2019-02-23T20:32:37.933Z,43.37
2019-02-23T20:35:08.375Z,61.77
2019-02-23T20:37:37.047Z,44.77
2019-02-23T20:40:08.045Z,53.67
2019-02-23T20:42:36.761Z,55.30
2019-02-23T20:45:07.599Z,49.37
2019-02-23T20:47:36.388Z,46.93
2019-02-23T20:50:10.556Z,46.10
2019-02-23T20:52:39.505Z,44.73
2019-02-23T20:55:09.186Z,41.70
2019-02-23T20:57:37.817Z,40.00
2019-02-23T21:00:10.934Z,63.03
2019-02-23T21:02:40.103Z,52.97
2019-02-23T21:05:13.220Z,51.97
2019-02-23T21:07:42.579Z,46.57
2019-02-23T21:10:11.451Z,45.00
2019-02-23T21:12:40.241Z,38.43
2019-02-23T21:15:10.668Z,44.50
2019-02-23T21:17:39.341Z,44.07
2019-02-23T21:20:09.511Z,44.67
2019-02-23T21:22:38.254Z,41.93
2019-02-23T21:25:08.195Z,41.57
2019-02-23T21:27:36.840Z,39.83
2019-02-23T21:30:10.080Z,36.80
2019-02-23T21:32:38.615Z,41.37
2019-02-23T21:35:08.529Z,40.83
2019-02-23T21:37:37.210Z,43.70
2019-02-23T21:40:12.087Z,42.13
2019-02-23T21:42:41.031Z,41.03
2019-02-23T21:45:09.911Z,42.20
2019-02-23T21:47:38.708Z,41.27
2019-02-23T21:50:09.353Z,39.87
2019-02-23T21:52:37.919Z,43.17
2019-02-23T21:55:06.811Z,44.07
2019-02-23T21:57:35.392Z,38.67
2019-02-23T22:00:05.406Z,44.73
2019-02-23T22:02:34.093Z,39.37
2019-02-23T22:05:11.670Z,37.70
2019-02-23T22:07:33.448Z,39.63
2019-02-23T22:10:01.989Z,43.47
2019-02-23T22:12:30.674Z,37.53
2019-02-23T22:14:59.477Z,40.10
2019-02-23T22:17:28.155Z,42.47
2019-02-23T22:19:56.937Z,38.10
2019-02-23T22:22:25.623Z,39.17
2019-02-23T22:24:54.183Z,40.37
2019-02-23T22:27:30.951Z,39.07
2019-02-23T22:29:53.411Z,39.07
2019-02-23T22:32:22.203Z,36.50
2019-02-23T22:34:50.885Z,39.50
2019-02-23T22:37:19.466Z,38.80
2019-02-23T22:39:48.149Z,38.30
2019-02-23T22:42:16.834Z,40.40
2019-02-23T22:44:45.624Z,39.20
2019-02-23T22:47:14.192Z,40.33
2019-02-23T22:49:43.095Z,38.33
2019-02-23T22:52:11.781Z,34.97
2019-02-23T22:54:40.467Z,39.07
2019-02-23T22:57:09.045Z,31.97
2019-02-23T22:59:38.043Z,34.53
2019-02-23T23:02:07.030Z,29.47
2019-02-23T23:04:35.724Z,31.40
2019-02-23T23:07:04.503Z,25.67
2019-02-23T23:09:33.289Z,37.00
2019-02-23T23:12:02.078Z,30.87
2019-02-23T23:14:30.759Z,28.03
2019-02-23T23:16:59.448Z,32.07
2019-02-23T23:19:28.126Z,32.37
2019-02-23T23:21:56.926Z,34.30
2019-02-23T23:24:25.494Z,33.07
2019-02-23T23:26:54.182Z,31.00
2019-02-23T23:29:22.765Z,36.23
2019-02-23T23:31:51.554Z,31.40
2019-02-23T23:34:20.336Z,26.67
2019-02-23T23:36:49.126Z,22.73
2019-02-23T23:39:17.919Z,26.23
2019-02-23T23:41:46.583Z,29.33
2019-02-23T23:44:15.664Z,24.10
2019-02-23T23:46:44.374Z,39.70
2019-02-23T23:49:13.051Z,25.27
2019-02-23T23:51:41.849Z,24.00
2019-02-23T23:54:10.635Z,26.40
2019-02-23T23:56:39.321Z,24.03
2019-02-23T23:59:08.002Z,24.67
